Time;durP1;ratioP1;P1;durP2;ratioP2;P2;SDS_P1;SDS_P2;PMS_P1;PMS_P2;Temp;Humidity;BMP_temperature;BMP_pressure;BME280_temperature;BME280_humidity;BME280_pressure;Samples;Min_cycle;Max_cycle;Signal;HPM_P1;HPM_P2
2022/01/08 00:00:43;;;;;;;1.70;1.60;;;;;;;4.74;70.62;99066.75;4981090;28;20225;-88
2022/01/08 00:03:08;;;;;;;2.43;1.60;;;;;;;4.76;70.56;99070.97;4964439;28;20551;-89
2022/01/08 00:05:34;;;;;;;3.60;1.63;;;;;;;4.79;70.32;99068.22;4961620;28;20458;-88
2022/01/08 00:08:02;;;;;;;1.65;1.55;;;;;;;4.83;70.06;99081.91;4990675;28;20210;-89
2022/01/08 00:10:28;;;;;;;1.60;1.43;;;;;;;4.86;69.91;99081.75;4986164;28;20235;-89
2022/01/08 00:12:54;;;;;;;5.20;1.77;;;;;;;4.87;69.85;99067.84;4977947;28;20350;-89
2022/01/08 00:15:22;;;;;;;1.95;1.40;;;;;;;4.89;70.29;99063.41;4967054;28;20311;-89
2022/01/08 00:17:48;;;;;;;1.80;1.70;;;;;;;4.90;69.52;99052.06;4981368;28;20199;-89
2022/01/08 00:20:13;;;;;;;2.23;2.00;;;;;;;4.91;69.41;99019.91;4986275;28;21026;-89
2022/01/08 00:22:40;;;;;;;3.20;1.60;;;;;;;4.94;69.47;99048.41;4982011;28;20490;-91
2022/01/08 00:25:18;;;;;;;2.33;1.48;;;;;;;4.94;69.48;99051.00;4984404;28;20218;-89
2022/01/08 00:27:47;;;;;;;2.20;1.30;;;;;;;4.93;68.92;99041.50;4984754;28;20249;-92
2022/01/08 00:30:13;;;;;;;2.03;1.20;;;;;;;4.96;68.44;99041.34;4972672;28;20823;-91
2022/01/08 00:32:40;;;;;;;1.60;1.50;;;;;;;5.07;68.35;99051.22;4980853;28;20469;-90
2022/01/08 00:35:09;;;;;;;1.58;1.30;;;;;;;5.05;68.26;99051.31;4975380;28;20994;-89
2022/01/08 00:37:44;;;;;;;12.45;3.05;;;;;;;5.04;68.05;99041.81;4976188;28;20246;-90
2022/01/08 00:40:16;;;;;;;1.58;1.30;;;;;;;5.01;68.57;99067.16;4963242;28;20256;-91
2022/01/08 00:42:42;;;;;;;2.25;1.63;;;;;;;4.98;68.85;99054.28;4982057;28;20742;-90
2022/01/08 00:45:07;;;;;;;1.70;1.60;;;;;;;4.92;69.47;99044.19;4980579;28;20934;-90
2022/01/08 00:47:33;;;;;;;2.93;1.60;;;;;;;4.86;69.59;99050.53;4984565;28;20239;-89
2022/01/08 00:50:00;;;;;;;1.73;1.17;;;;;;;4.81;70.13;99047.34;4966852;28;20498;-90
2022/01/08 00:52:25;;;;;;;1.37;1.27;;;;;;;4.76;70.79;99041.50;4972014;28;20199;-89
2022/01/08 00:54:51;;;;;;;1.67;1.53;;;;;;;4.72;71.06;99042.56;4967422;28;20465;-88
2022/01/08 00:57:16;;;;;;;1.93;1.70;;;;;;;4.65;71.63;99055.03;4980438;28;20227;-88
2022/01/08 00:59:51;;;;;;;2.50;1.40;;;;;;;4.59;72.30;99048.38;4984604;28;20333;-91
2022/01/08 01:02:24;;;;;;;2.95;1.58;;;;;;;4.51;73.21;99045.28;4967318;28;20310;-89
2022/01/08 01:04:53;;;;;;;1.63;1.30;;;;;;;4.40;74.09;99043.22;4987062;28;20213;-91
2022/01/08 01:07:18;;;;;;;1.80;1.70;;;;;;;4.31;75.19;99042.78;4989696;28;20369;-89
2022/01/08 01:09:44;;;;;;;2.13;1.57;;;;;;;4.22;75.59;99036.28;4989762;28;20294;-88
2022/01/08 01:12:13;;;;;;;1.63;1.40;;;;;;;4.11;76.01;99041.13;5000219;28;20219;-89
2022/01/08 01:14:42;;;;;;;3.65;1.63;;;;;;;4.02;76.31;99031.97;4999402;28;21276;-90
2022/01/08 01:17:07;;;;;;;2.20;1.20;;;;;;;3.97;76.86;99036.56;5008830;28;20211;-89
2022/01/08 01:19:35;;;;;;;1.50;1.37;;;;;;;3.92;77.01;99035.94;5006351;28;20207;-90
2022/01/08 01:22:00;;;;;;;1.70;1.40;;;;;;;3.90;77.29;99028.19;4990921;28;20515;-89
2022/01/08 01:24:27;;;;;;;1.80;1.70;;;;;;;3.86;77.62;99031.88;4980165;28;20319;-88
2022/01/08 01:29:35;;;;;;;2.45;1.50;;;;;;;3.81;78.02;99027.75;4989162;28;20203;-90
2022/01/08 01:48:28;;;;;;;1.92;1.50;;;;;;;3.53;80.06;99021.22;4963364;28;20211;-88
2022/01/08 01:50:54;;;;;;;1.50;1.40;;;;;;;3.47;80.28;99030.13;4958305;28;20234;-89
2022/01/08 01:53:24;;;;;;;2.40;1.60;;;;;;;3.43;80.96;99022.50;4966830;28;20230;-87
2022/01/08 01:55:52;;;;;;;1.90;1.50;;;;;;;3.38;80.95;99009.75;4979613;28;20345;-84
2022/01/08 01:58:18;;;;;;;2.53;1.33;;;;;;;3.35;81.38;99015.09;4981254;28;20457;-89
2022/01/08 02:00:48;;;;;;;1.70;1.60;;;;;;;3.30;81.56;99015.28;4976932;28;20511;-87
2022/01/08 02:03:13;;;;;;;3.88;1.75;;;;;;;3.26;81.52;99012.88;4968109;28;20736;-89
2022/01/08 02:05:39;;;;;;;2.97;1.80;;;;;;;3.23;81.64;99023.41;4978110;28;20199;-88
2022/01/08 02:08:13;;;;;;;1.40;1.30;;;;;;;3.19;81.84;99029.63;4968893;28;20206;-89
2022/01/08 02:10:41;;;;;;;3.25;1.60;;;;;;;3.15;82.14;99023.72;4980703;28;20207;-89
2022/01/08 02:13:07;;;;;;;1.57;1.47;;;;;;;3.15;82.35;99022.88;4965368;28;20561;-88
2022/01/08 02:15:57;;;;;;;1.35;1.25;;;;;;;3.14;82.16;99016.03;4980037;28;20541;-89
2022/01/08 02:18:27;;;;;;;2.85;1.50;;;;;;;3.12;82.17;99018.66;4974071;28;20299;-88
2022/01/08 02:20:58;;;;;;;2.97;1.92;;;;;;;3.12;82.41;99007.44;4990725;28;20227;-89
2022/01/08 02:23:27;;;;;;;1.40;1.20;;;;;;;3.12;82.12;99005.69;4967444;28;20257;-89
2022/01/08 02:26:07;;;;;;;3.33;1.80;;;;;;;3.09;82.25;98991.09;4989519;28;20422;-89
2022/01/08 02:28:33;;;;;;;1.63;1.52;;;;;;;3.09;82.25;98995.44;4983439;28;20211;-88
2022/01/08 02:30:59;;;;;;;1.42;1.27;;;;;;;3.08;82.65;98993.78;4965917;28;21149;-90
2022/01/08 02:33:31;;;;;;;1.70;1.50;;;;;;;3.08;82.48;98989.41;4989540;28;20547;-90
2022/01/08 02:35:57;;;;;;;2.53;1.20;;;;;;;3.09;82.61;98978.13;4979630;28;20274;-89
2022/01/08 02:38:24;;;;;;;1.40;1.30;;;;;;;3.09;82.68;98980.72;4986574;28;20207;-89
2022/01/08 02:41:02;;;;;;;1.27;1.02;;;;;;;3.13;82.46;98986.59;4986566;28;20231;-88
2022/01/08 02:43:34;;;;;;;2.00;1.10;;;;;;;3.16;82.35;98993.41;5006887;28;20203;-89
2022/01/08 02:46:00;;;;;;;1.35;1.10;;;;;;;3.16;82.31;98986.50;4999950;28;20226;-89
2022/01/08 02:48:25;;;;;;;3.23;1.50;;;;;;;3.16;81.94;98991.69;4988317;28;20211;-89
2022/01/08 02:50:51;;;;;;;1.40;1.10;;;;;;;3.16;82.17;98996.88;4986705;28;20569;-90
2022/01/08 02:53:17;;;;;;;1.23;0.95;;;;;;;3.17;81.85;98987.34;4988021;28;20203;-88
2022/01/08 02:55:43;;;;;;;1.83;1.20;;;;;;;3.17;81.70;98976.97;4979341;28;20342;-87
2022/01/08 02:58:08;;;;;;;1.17;1.07;;;;;;;3.20;81.61;98989.78;4985937;28;20211;-88
2022/01/08 03:00:34;;;;;;;1.90;1.00;;;;;;;3.19;81.55;98985.53;4986164;28;20465;-87
2022/01/08 03:03:00;;;;;;;1.67;1.33;;;;;;;3.19;81.30;98990.72;4992206;28;20203;-90
2022/01/08 03:05:25;;;;;;;0.90;0.90;;;;;;;3.19;81.36;98993.31;4979363;28;20557;-88
2022/01/08 03:07:51;;;;;;;1.20;1.10;;;;;;;3.18;81.49;98995.03;4989093;28;20242;-88
2022/01/08 03:10:20;;;;;;;1.83;1.30;;;;;;;3.19;81.63;98994.16;4986803;28;20200;-89
2022/01/08 03:12:53;;;;;;;1.17;1.08;;;;;;;3.22;81.65;98972.41;4972035;28;21014;-88
2022/01/08 03:15:21;;;;;;;0.80;0.77;;;;;;;3.25;81.17;98977.47;4983269;28;20836;-89
2022/01/08 03:17:57;;;;;;;1.83;1.10;;;;;;;3.28;81.61;98988.53;4998500;28;20195;-90
2022/01/08 03:20:23;;;;;;;1.10;1.00;;;;;;;3.31;81.55;98988.41;4978380;28;20294;-89
2022/01/08 03:22:49;;;;;;;1.57;1.00;;;;;;;3.35;81.39;98976.16;4977802;28;20227;-90
2022/01/08 03:25:15;;;;;;;1.60;1.00;;;;;;;3.39;81.65;98974.25;4988056;28;20195;-91
2022/01/08 03:27:44;;;;;;;1.45;1.05;;;;;;;3.44;81.59;98999.09;4971607;28;20203;-89
2022/01/08 03:30:13;;;;;;;5.60;1.30;;;;;;;3.46;81.43;98986.91;4979582;28;21503;-89
2022/01/08 03:32:39;;;;;;;1.87;1.10;;;;;;;3.51;81.42;98981.47;4990217;28;20199;-90
2022/01/08 03:35:08;;;;;;;1.10;1.00;;;;;;;3.52;81.70;98994.41;4989914;28;20207;-91
2022/01/08 03:37:34;;;;;;;1.42;1.33;;;;;;;3.53;81.59;98983.09;4979445;28;20206;-89
2022/01/08 03:40:00;;;;;;;1.83;1.35;;;;;;;3.55;81.56;98996.03;4993454;28;20222;-90
2022/01/08 03:42:25;;;;;;;1.00;1.00;;;;;;;3.55;81.92;98989.06;4987160;28;20281;-89
2022/01/08 03:44:56;;;;;;;1.83;1.13;;;;;;;3.55;81.81;98990.84;4961253;28;20242;-92
2022/01/08 03:49:51;;;;;;;0.80;0.80;;;;;;;3.54;81.93;98999.53;4993002;28;20537;-89
2022/01/08 03:52:17;;;;;;;1.20;1.10;;;;;;;3.53;82.10;99003.88;4993080;28;20275;-91
2022/01/08 03:54:43;;;;;;;1.97;1.23;;;;;;;3.54;82.06;99004.75;4994108;28;20204;-90
2022/01/08 03:57:09;;;;;;;2.07;1.40;;;;;;;3.54;82.16;99017.72;4972893;28;20453;-91
2022/01/08 03:59:37;;;;;;;1.20;1.10;;;;;;;3.56;81.97;99008.09;4973299;28;20532;-87
2022/01/08 04:02:03;;;;;;;0.88;0.85;;;;;;;3.56;81.88;99018.47;4995944;28;20566;-89
2022/01/08 04:04:36;;;;;;;1.40;1.30;;;;;;;3.57;82.01;99027.97;4989920;28;20588;-91
2022/01/08 04:07:02;;;;;;;2.40;1.30;;;;;;;3.57;81.98;99043.56;4987613;28;20297;-89
2022/01/08 04:09:28;;;;;;;1.83;1.10;;;;;;;3.60;81.72;99040.81;4984408;28;20250;-90
2022/01/08 04:11:59;;;;;;;1.60;1.10;;;;;;;3.62;81.91;99051.97;5006971;28;20472;-92
2022/01/08 04:14:46;;;;;;;;;;;;;;;;;;;;;
2022/01/08 04:17:28;;;;;;;0.90;0.90;;;;;;;3.63;81.95;99071.00;5008227;28;20266;-90
2022/01/08 04:19:54;;;;;;;1.67;1.58;;;;;;;3.64;81.64;99089.09;5001699;28;20446;-90
2022/01/08 04:22:23;;;;;;;1.20;1.10;;;;;;;3.65;81.72;99092.56;5005993;28;20283;-91
2022/01/08 04:25:00;;;;;;;1.33;1.00;;;;;;;3.66;81.81;99091.63;5011387;28;20627;-91
2022/01/08 04:27:26;;;;;;;1.20;1.10;;;;;;;3.65;81.77;99082.16;5014370;28;20210;-89
2022/01/08 04:29:55;;;;;;;0.82;0.82;;;;;;;3.66;81.91;99107.22;5012353;28;20195;-90
2022/01/08 04:32:23;;;;;;;1.00;0.90;;;;;;;3.64;81.71;99116.81;5016933;28;20195;-92
2022/01/08 04:34:49;;;;;;;1.08;1.00;;;;;;;3.63;81.71;99123.78;4991928;28;20203;-90
2022/01/08 04:37:28;;;;;;;;;;;;;;;;;;;;;
2022/01/08 04:40:02;;;;;;;2.28;1.00;;;;;;;3.64;81.57;99140.19;5005337;28;20206;-92
2022/01/08 04:42:33;;;;;;;1.50;1.00;;;;;;;3.64;81.32;99155.78;4981147;28;20235;-91
2022/01/08 04:45:29;;;;;;;3.53;1.10;;;;;;;3.64;81.45;99167.00;5002285;28;20566;-92
2022/01/08 04:48:17;;;;;;;1.70;1.10;;;;;;;3.67;81.29;99182.50;5005791;28;20202;-91
2022/01/08 04:50:43;;;;;;;2.33;1.30;;;;;;;3.66;81.05;99185.97;5002843;28;20241;-92
2022/01/08 04:53:10;;;;;;;0.90;0.90;;;;;;;3.66;81.05;99191.16;4993726;28;20202;-89
2022/01/08 04:55:46;;;;;;;1.20;0.90;;;;;;;3.65;81.06;99214.63;5015538;28;20207;-92
2022/01/08 04:58:28;;;;;;;1.65;0.70;;;;;;;3.65;81.07;99225.84;4989535;28;20215;-91
2022/01/08 05:01:02;;;;;;;1.25;0.80;;;;;;;3.63;81.27;99240.66;5001400;28;20328;-91
2022/01/08 05:03:33;;;;;;;1.15;0.98;;;;;;;3.64;81.30;99236.28;5003878;28;20202;-92
2022/01/08 05:05:59;;;;;;;3.63;1.48;;;;;;;3.64;81.25;99251.88;4992043;28;20215;-91
2022/01/08 05:08:27;;;;;;;1.02;0.88;;;;;;;3.61;81.54;99258.03;5015777;28;20204;-92
2022/01/08 05:10:56;;;;;;;0.70;0.70;;;;;;;3.59;81.30;99270.22;5020265;28;20511;-91
2022/01/08 05:13:37;;;;;;;1.40;1.30;;;;;;;3.57;81.50;99273.81;5015842;28;20218;-91
2022/01/08 05:16:10;;;;;;;1.50;0.95;;;;;;;3.57;81.31;99287.66;5009034;28;20629;-91
2022/01/08 05:18:39;;;;;;;1.65;1.55;;;;;;;3.55;81.23;99287.69;5018117;28;20227;-91
2022/01/08 05:21:23;;;;;;;1.33;0.88;;;;;;;3.54;81.41;99288.63;5016719;28;20398;-89
2022/01/08 05:23:58;;;;;;;2.25;0.80;;;;;;;3.54;81.12;99299.00;5006973;28;20306;-90
2022/01/08 05:27:18;;;;;;;;;;;;;;;;;;;;;
2022/01/08 05:29:54;;;;;;;2.33;1.02;;;;;;;3.58;81.32;99319.66;5011276;23;20250;-80
2022/01/08 05:32:20;;;;;;;1.08;0.98;;;;;;;3.60;80.70;99328.25;4991461;28;20230;-80
2022/01/08 05:34:49;;;;;;;1.53;1.13;;;;;;;3.59;79.98;99329.13;4992055;28;20289;-79
2022/01/08 05:37:15;;;;;;;0.80;0.70;;;;;;;3.59;79.15;99337.75;4999882;28;21011;-80
2022/01/08 05:39:41;;;;;;;0.88;0.85;;;;;;;3.60;78.40;99344.66;4994895;28;20206;-80
2022/01/08 05:42:06;;;;;;;0.90;0.80;;;;;;;3.61;77.31;99343.75;4993942;28;20226;-79
2022/01/08 05:44:32;;;;;;;2.07;0.90;;;;;;;3.62;76.66;99352.38;4992150;28;20549;-79
2022/01/08 05:46:58;;;;;;;0.90;0.90;;;;;;;3.62;76.34;99353.25;4994474;28;20211;-80
2022/01/08 05:49:23;;;;;;;0.70;0.70;;;;;;;3.62;75.21;99348.06;4998038;28;20202;-80
2022/01/08 05:51:48;;;;;;;0.87;0.87;;;;;;;3.61;74.45;99358.47;4991321;28;20219;-80
2022/01/08 05:54:14;;;;;;;0.80;0.80;;;;;;;3.59;74.64;99365.47;4993798;28;20868;-80
2022/01/08 05:56:39;;;;;;;0.90;0.90;;;;;;;3.57;74.20;99372.50;4997729;28;20215;-81
2022/01/08 05:59:05;;;;;;;0.77;0.77;;;;;;;3.54;74.30;99378.66;4993365;28;20254;-81
2022/01/08 06:01:33;;;;;;;1.00;0.90;;;;;;;3.55;74.10;99376.00;4993062;28;21603;-81
2022/01/08 06:03:58;;;;;;;1.00;0.90;;;;;;;3.56;73.95;99387.22;4994615;28;20206;-81
2022/01/08 06:06:24;;;;;;;1.00;0.90;;;;;;;3.53;73.51;99403.75;4993659;28;20195;-81
2022/01/08 06:08:49;;;;;;;1.10;1.00;;;;;;;3.51;73.22;99407.31;4998093;28;20214;-82
2022/01/08 06:11:14;;;;;;;1.00;0.90;;;;;;;3.48;73.47;99415.22;5007383;28;20808;-81
2022/01/08 06:13:40;;;;;;;0.80;0.80;;;;;;;3.43;73.41;99415.44;5002469;28;20202;-81
2022/01/08 06:16:05;;;;;;;1.80;0.80;;;;;;;3.41;73.73;99431.97;4997223;28;20311;-81
2022/01/08 06:18:31;;;;;;;5.00;1.30;;;;;;;3.39;73.65;99438.97;5002032;28;20215;-81
2022/01/08 06:20:59;;;;;;;1.40;0.93;;;;;;;3.35;73.58;99446.03;5004387;28;20282;-81
2022/01/08 06:23:28;;;;;;;1.75;1.13;;;;;;;3.32;73.81;99448.69;5001167;28;21021;-80
2022/01/08 06:25:53;;;;;;;2.00;1.10;;;;;;;3.29;73.88;99457.47;5001614;28;20549;-79
2022/01/08 06:28:19;;;;;;;1.13;1.03;;;;;;;3.27;73.94;99461.03;4993813;28;20268;-80
2022/01/08 06:30:44;;;;;;;1.10;1.00;;;;;;;3.26;73.98;99467.94;5002903;28;20210;-79
2022/01/08 06:33:10;;;;;;;0.93;0.93;;;;;;;3.24;74.03;99474.09;5001361;28;21389;-80
2022/01/08 06:35:35;;;;;;;7.40;1.07;;;;;;;3.25;74.04;99486.19;4995855;28;21321;-80
2022/01/08 06:38:01;;;;;;;1.57;0.80;;;;;;;3.23;73.80;99488.81;4998164;28;20211;-79
2022/01/08 06:40:26;;;;;;;1.20;1.03;;;;;;;3.24;73.95;99493.13;4994535;28;20207;-80
2022/01/08 06:42:52;;;;;;;1.10;1.00;;;;;;;3.24;74.21;99507.84;4997426;28;20292;-79
2022/01/08 06:45:17;;;;;;;0.97;0.97;;;;;;;3.22;74.47;99518.28;4996490;28;20255;-80
2022/01/08 06:47:45;;;;;;;1.17;1.07;;;;;;;3.20;74.46;99522.69;4999938;28;20207;-80
2022/01/08 06:50:11;;;;;;;1.20;1.10;;;;;;;3.18;74.68;99526.22;4992525;28;20237;-79
2022/01/08 06:52:37;;;;;;;2.35;1.15;;;;;;;3.16;74.54;99526.31;5030381;23;20206;-79
2022/01/08 06:55:03;;;;;;;3.03;1.40;;;;;;;3.14;74.78;99519.47;4921394;28;20232;-78
2022/01/08 06:57:28;;;;;;;5.30;3.73;;;;;;;3.13;74.81;99526.38;4925137;28;20939;-78
2022/01/08 06:59:54;;;;;;;6.93;5.30;;;;;;;3.12;74.57;99523.84;4920326;28;20993;-78
2022/01/08 07:02:19;;;;;;;3.67;1.80;;;;;;;3.13;74.76;99522.94;4933647;29;20288;-77
2022/01/08 07:04:44;;;;;;;4.67;3.47;;;;;;;3.14;74.87;99527.25;4936441;29;20225;-79
2022/01/08 07:07:10;;;;;;;2.63;1.87;;;;;;;3.16;74.51;99523.72;4936747;28;20316;-78
2022/01/08 07:09:35;;;;;;;8.10;2.33;;;;;;;3.16;74.58;99520.22;4935055;28;20223;-79
2022/01/08 07:12:01;;;;;;;3.70;2.23;;;;;;;3.18;74.68;99526.22;4933130;29;20205;-78
2022/01/08 07:14:26;;;;;;;6.30;3.30;;;;;;;3.17;74.47;99530.56;4933976;29;20232;-78
2022/01/08 07:16:51;;;;;;;4.87;4.40;;;;;;;3.16;74.60;99528.03;4934691;29;20205;-78
2022/01/08 07:19:18;;;;;;;5.10;3.70;;;;;;;3.15;74.79;99532.38;4953315;29;20605;-80
2022/01/08 07:21:43;;;;;;;5.07;4.60;;;;;;;3.15;74.40;99549.69;4953708;29;20248;-78
2022/01/08 07:24:09;;;;;;;3.30;2.90;;;;;;;3.13;74.30;99552.34;4937465;29;20226;-78
2022/01/08 07:26:34;;;;;;;5.07;4.20;;;;;;;3.10;74.43;99558.47;4937010;29;20228;-79
2022/01/08 07:29:00;;;;;;;3.80;3.17;;;;;;;3.08;74.28;99560.28;4935708;29;20309;-77
2022/01/08 07:31:25;;;;;;;5.72;4.72;;;;;;;3.10;74.40;99557.63;4935700;29;21378;-79
2022/01/08 07:33:50;;;;;;;8.40;7.30;;;;;;;3.10;73.90;99568.00;4939641;29;20241;-78
2022/01/08 07:36:17;;;;;;;54.60;24.57;;;;;;;3.05;73.87;99575.09;4935570;29;20212;-77
2022/01/08 07:38:43;;;;;;;28.00;15.85;;;;;;;3.02;73.88;99576.03;4937582;29;20208;-78
2022/01/08 07:41:08;;;;;;;19.80;10.33;;;;;;;2.99;74.17;99583.09;4936274;29;20222;-79
2022/01/08 07:43:34;;;;;;;12.53;8.70;;;;;;;2.95;74.02;99597.09;4937021;29;20233;-80
2022/01/08 07:45:59;;;;;;;7.60;6.80;;;;;;;2.91;73.73;99601.50;4937581;29;20212;-78
2022/01/08 07:48:25;;;;;;;9.10;5.30;;;;;;;2.87;74.10;99599.91;4941317;29;20296;-80
2022/01/08 07:50:57;;;;;;;12.67;11.23;;;;;;;2.81;74.11;99598.38;4938431;29;20275;-79
2022/01/08 07:53:25;;;;;;;4.57;3.33;;;;;;;2.79;74.36;99601.91;4935915;29;20249;-78
2022/01/08 07:55:51;;;;;;;2.15;2.00;;;;;;;2.81;74.64;99607.91;4932939;28;20241;-78
2022/01/08 07:58:20;;;;;;;1.50;1.40;;;;;;;2.80;74.44;99609.63;4932582;28;20209;-78
2022/01/08 08:00:47;;;;;;;4.13;3.10;;;;;;;2.79;74.37;99613.13;4931458;28;20288;-78
2022/01/08 08:03:13;;;;;;;4.70;3.50;;;;;;;2.78;74.48;99611.44;4928786;28;20448;-78
2022/01/08 08:05:38;;;;;;;3.87;2.10;;;;;;;2.78;74.10;99613.16;4933531;29;20745;-78
2022/01/08 08:08:04;;;;;;;5.77;3.37;;;;;;;2.75;74.21;99616.69;4931642;28;20764;-78
2022/01/08 08:10:29;;;;;;;8.20;7.40;;;;;;;2.72;74.08;99623.75;4931560;29;20205;-80
2022/01/08 08:12:55;;;;;;;2.73;2.53;;;;;;;2.70;74.22;99616.03;4930776;28;20229;-77
2022/01/08 08:15:22;;;;;;;3.00;2.45;;;;;;;2.70;74.44;99610.84;4931724;28;22152;-79
2022/01/08 08:17:47;;;;;;;2.42;2.00;;;;;;;2.75;74.41;99615.84;4930621;28;20209;-79
2022/01/08 08:20:13;;;;;;;2.20;1.60;;;;;;;2.77;74.49;99617.50;4930472;28;21328;-78
2022/01/08 08:22:39;;;;;;;1.50;1.10;;;;;;;2.79;74.70;99612.28;4914935;29;20233;-78
2022/01/08 08:25:07;;;;;;;3.33;1.83;;;;;;;2.80;74.74;99608.78;4932109;29;20988;-78
2022/01/08 08:27:32;;;;;;;1.92;1.73;;;;;;;2.82;74.45;99617.38;4929406;28;20921;-78
2022/01/08 08:29:57;;;;;;;3.10;2.90;;;;;;;2.83;74.96;99619.06;4933548;29;20284;-79
2022/01/08 08:32:23;;;;;;;1.77;1.67;;;;;;;2.83;74.74;99622.50;4930618;28;20900;-78
2022/01/08 08:34:50;;;;;;;2.63;2.40;;;;;;;2.86;75.07;99621.56;4932087;28;20205;-78
2022/01/08 08:37:16;;;;;;;6.80;2.05;;;;;;;2.87;75.15;99615.47;4929259;29;20700;-77
2022/01/08 08:39:41;;;;;;;1.93;1.30;;;;;;;2.89;75.29;99618.88;4935651;28;20217;-80
2022/01/08 08:42:07;;;;;;;1.90;1.43;;;;;;;2.90;75.83;99627.50;4934207;29;20275;-80
2022/01/08 08:44:32;;;;;;;2.63;1.57;;;;;;;2.91;75.77;99630.03;4914736;28;20259;-78
2022/01/08 08:46:58;;;;;;;2.53;2.00;;;;;;;2.91;76.05;99624.84;4935467;28;20219;-78
2022/01/08 08:49:23;;;;;;;3.97;3.57;;;;;;;2.96;76.14;99629.91;4933652;29;21189;-78
2022/01/08 08:51:49;;;;;;;2.70;1.87;;;;;;;2.99;76.19;99630.63;4933063;28;20205;-78
2022/01/08 08:54:14;;;;;;;1.77;1.33;;;;;;;3.03;76.58;99624.47;4934011;28;20751;-78
2022/01/08 08:56:42;;;;;;;3.93;1.37;;;;;;;3.07;76.47;99626.06;4935450;28;20205;-80
2022/01/08 08:59:07;;;;;;;2.58;1.90;;;;;;;3.14;76.57;99641.44;4898624;29;20227;-78
2022/01/08 09:01:33;;;;;;;4.47;2.53;;;;;;;3.19;76.29;99635.19;4899202;29;20233;-78
2022/01/08 09:03:58;;;;;;;2.20;2.00;;;;;;;3.20;75.89;99631.69;4918739;29;20704;-78
2022/01/08 09:06:26;;;;;;;6.37;1.80;;;;;;;3.22;75.63;99629.91;4911477;29;20206;-77
2022/01/08 09:08:51;;;;;;;3.75;2.25;;;;;;;3.28;75.74;99624.50;4914703;29;20202;-78
2022/01/08 09:11:17;;;;;;;2.93;2.07;;;;;;;3.52;75.36;99640.16;4901023;29;20854;-79
2022/01/08 09:13:42;;;;;;;2.77;1.23;;;;;;;4.20;74.03;99644.63;4913866;29;20675;-78
2022/01/08 09:16:08;;;;;;;3.30;1.70;;;;;;;5.22;70.71;99651.97;4914269;29;20213;-77
2022/01/08 09:18:33;;;;;;;3.47;2.00;;;;;;;5.94;68.33;99642.84;4912899;29;20224;-77
2022/01/08 09:20:59;;;;;;;9.03;5.67;;;;;;;6.14;66.37;99647.22;4915528;29;20214;-78
2022/01/08 09:23:24;;;;;;;10.37;8.33;;;;;;;6.09;66.00;99657.00;4917018;29;20233;-78
2022/01/08 09:25:50;;;;;;;4.10;2.67;;;;;;;6.19;65.79;99650.47;4918625;29;20646;-79
2022/01/08 09:28:15;;;;;;;2.97;2.73;;;;;;;6.25;65.62;99655.41;4916344;29;20213;-78
2022/01/08 09:30:41;;;;;;;1.97;1.50;;;;;;;6.14;64.80;99650.66;4929741;28;20496;-79
2022/01/08 09:33:06;;;;;;;4.30;2.40;;;;;;;5.94;66.05;99659.38;4934647;29;20631;-77
2022/01/08 09:35:31;;;;;;;2.00;1.50;;;;;;;5.75;66.02;99653.22;4903483;29;20432;-77
2022/01/08 09:37:57;;;;;;;1.67;1.57;;;;;;;5.55;66.23;99651.47;4936704;29;20569;-77
2022/01/08 09:40:23;;;;;;;3.00;2.70;;;;;;;5.33;66.81;99662.78;4935068;29;20216;-79
2022/01/08 09:42:50;;;;;;;4.25;2.20;;;;;;;5.21;67.15;99660.69;4935474;28;20234;-78
2022/01/08 09:45:16;;;;;;;2.95;1.80;;;;;;;5.07;67.27;99660.38;4931937;28;20221;-77
2022/01/08 09:47:41;;;;;;;1.70;1.60;;;;;;;5.00;67.43;99659.78;4933631;28;20205;-79
2022/01/08 09:50:08;;;;;;;2.03;1.60;;;;;;;4.91;67.88;99652.34;4936184;28;20491;-77
2022/01/08 09:52:34;;;;;;;3.67;1.70;;;;;;;4.80;67.98;99646.72;4941816;28;20535;-77
2022/01/08 09:55:00;;;;;;;6.73;2.20;;;;;;;4.70;68.44;99645.38;4937892;29;20677;-79
2022/01/08 09:57:25;;;;;;;2.90;2.17;;;;;;;4.61;68.66;99650.03;4934739;28;20559;-78
2022/01/08 09:59:52;;;;;;;2.40;2.10;;;;;;;4.52;69.03;99637.38;4934563;28;20348;-79
2022/01/08 10:02:22;;;;;;;1.60;1.45;;;;;;;4.45;69.46;99643.72;4938088;28;20575;-78
2022/01/08 10:04:48;;;;;;;2.13;1.67;;;;;;;4.41;69.68;99637.78;4935216;28;20205;-78
2022/01/08 10:07:17;;;;;;;1.60;1.50;;;;;;;4.46;69.36;99637.63;4936774;28;20262;-79
2022/01/08 10:10:15;;;;;;;1.95;1.77;;;;;;;4.88;68.37;99626.44;4948587;28;20210;-79
2022/01/08 10:12:56;;;;;;;5.88;1.70;;;;;;;5.24;67.29;99621.50;4937025;28;20768;-79
2022/01/08 10:18:27;;;;;;;2.35;1.90;;;;;;;5.30;66.49;99621.25;4948906;28;20207;-80
2022/01/08 10:20:55;;;;;;;3.40;1.70;;;;;;;5.41;66.06;99614.75;4941254;28;20277;-78
2022/01/08 10:23:22;;;;;;;5.15;2.10;;;;;;;5.51;65.26;99616.06;4937949;28;20601;-79
2022/01/08 10:26:00;;;;;;;7.57;3.00;;;;;;;5.50;65.23;99614.34;4935623;28;20214;-78
2022/01/08 10:29:03;;;;;;;3.25;2.80;;;;;;;5.28;64.72;99611.78;4935293;28;20256;-78
2022/01/08 10:31:31;;;;;;;2.60;1.50;;;;;;;5.02;65.85;99598.13;4865441;29;20740;-79
2022/01/08 10:34:02;;;;;;;3.47;2.38;;;;;;;4.88;66.63;99598.66;4923985;29;20235;-78
2022/01/08 10:36:29;;;;;;;1.98;1.63;;;;;;;4.87;67.04;99599.56;4934860;28;20894;-80
2022/01/08 10:38:57;;;;;;;1.60;1.50;;;;;;;4.91;67.45;99594.22;4937100;28;20205;-78
2022/01/08 10:41:24;;;;;;;55.60;11.38;;;;;;;4.96;67.42;99593.13;4934306;28;20238;-80
2022/01/08 10:44:24;;;;;;;2.25;1.55;;;;;;;5.00;67.14;99599.94;4934947;28;21029;-78
2022/01/08 10:46:58;;;;;;;1.35;1.25;;;;;;;4.99;67.20;99593.00;4939576;28;20765;-78
2022/01/08 10:49:32;;;;;;;1.00;0.90;;;;;;;4.99;67.27;99589.56;4937054;29;21212;-78
2022/01/08 10:52:00;;;;;;;3.83;2.08;;;;;;;4.98;67.49;99586.13;4938360;29;20304;-79
2022/01/08 10:54:30;;;;;;;2.13;1.92;;;;;;;4.95;67.57;99578.44;4938879;28;20249;-79
2022/01/08 10:57:02;;;;;;;8.43;2.20;;;;;;;4.91;67.82;99584.66;4937357;28;20300;-79
2022/01/08 10:59:29;;;;;;;3.05;1.85;;;;;;;4.74;67.58;99589.72;4939075;28;20216;-79
2022/01/08 11:01:56;;;;;;;4.55;1.60;;;;;;;4.63;67.75;99595.34;4938603;28;20256;-77
2022/01/08 11:04:35;;;;;;;7.10;4.20;;;;;;;4.58;67.77;99582.50;4936273;29;20705;-77
2022/01/08 11:07:04;;;;;;;7.07;2.95;;;;;;;4.61;68.62;99582.38;4937809;28;20212;-78
2022/01/08 11:09:30;;;;;;;1.63;1.50;;;;;;;4.68;68.19;99577.81;4939822;28;20227;-77
2022/01/08 11:11:58;;;;;;;2.93;1.63;;;;;;;4.77;67.70;99567.00;4940787;28;20670;-77
2022/01/08 11:17:30;;;;;;;2.55;1.50;;;;;;;5.00;66.60;99553.06;4941189;28;20212;-77
2022/01/08 11:19:57;;;;;;;4.15;1.73;;;;;;;5.11;66.48;99555.22;4941106;28;20205;-77
2022/01/08 11:22:28;;;;;;;2.63;1.50;;;;;;;5.23;66.45;99557.28;4938158;28;20252;-77
2022/01/08 11:24:57;;;;;;;1.95;1.40;;;;;;;5.31;65.70;99557.81;4939413;28;20202;-77
2022/01/08 11:27:29;;;;;;;1.05;0.95;;;;;;;5.38;64.49;99555.81;4936141;28;20582;-79
2022/01/08 11:30:02;;;;;;;2.90;1.63;;;;;;;5.44;64.38;99549.47;4937367;28;20231;-78
2022/01/08 11:32:29;;;;;;;3.05;1.20;;;;;;;5.55;63.52;99542.88;4936689;28;20579;-78
2022/01/08 11:34:55;;;;;;;3.50;1.73;;;;;;;5.57;63.56;99544.59;4937393;28;20205;-77
2022/01/08 11:37:24;;;;;;;1.73;1.40;;;;;;;5.57;63.79;99536.78;4936131;28;20233;-79
2022/01/08 11:39:51;;;;;;;4.30;2.35;;;;;;;5.60;62.99;99531.41;4940350;28;20757;-77
2022/01/08 11:42:20;;;;;;;1.90;1.40;;;;;;;5.61;62.72;99535.72;4936637;28;20240;-77
2022/01/08 11:44:47;;;;;;;1.45;1.35;;;;;;;5.58;62.72;99528.88;4939699;28;20288;-77
2022/01/08 11:47:13;;;;;;;2.95;1.52;;;;;;;5.46;62.49;99521.63;4936019;28;20253;-78
2022/01/08 11:49:41;;;;;;;1.67;1.20;;;;;;;5.36;62.73;99523.75;4937644;28;20653;-77
2022/01/08 11:52:17;;;;;;;3.47;1.20;;;;;;;5.28;62.59;99502.41;4939826;29;20741;-78
2022/01/08 11:54:45;;;;;;;4.88;1.40;;;;;;;5.23;62.18;99505.22;4936737;28;20613;-77
2022/01/08 11:57:25;;;;;;;5.15;1.38;;;;;;;5.19;62.13;99505.44;4935890;28;20201;-79
2022/01/08 12:00:02;;;;;;;1.70;1.15;;;;;;;5.15;62.14;99499.50;4922759;29;20213;-77
2022/01/08 12:02:42;;;;;;;2.42;1.70;;;;;;;5.28;62.20;99508.47;4938472;29;20483;-77
2022/01/08 12:05:12;;;;;;;4.10;1.95;;;;;;;5.29;62.20;99496.28;4937840;29;21064;-77
2022/01/08 12:07:42;;;;;;;2.25;1.25;;;;;;;5.27;61.67;99496.38;4945087;28;20252;-78
2022/01/08 12:10:20;;;;;;;2.58;1.30;;;;;;;5.23;62.51;99488.75;4940714;29;20235;-76
2022/01/08 12:12:45;;;;;;;2.33;1.90;;;;;;;5.25;62.77;99479.13;4937003;28;20220;-78
2022/01/08 12:15:11;;;;;;;1.90;1.60;;;;;;;5.24;62.75;99469.63;4937046;28;20219;-77
2022/01/08 12:17:57;;;;;;;3.15;1.52;;;;;;;5.25;61.76;99451.31;4938513;28;20305;-77